Home > Products > Valid Products > TAF

000
FTUS44 KLZK 301346 AAA
TAFPBF
TAF AMD
KPBF 301346Z 3014/0112 20010G18KT P6SM VCSH BKN120
      TEMPO 3014/3015 VRB25G40KT
     FM301600 20012G20KT P6SM SCT030 BKN120
     FM010200 24006KT P6SM BKN060
     FM010600 27005KT P6SM SCT060 BKN250=



000
FTUS44 KLZK 301345 AAB
TAFLIT
TAF AMD
KLIT 301345Z 3014/0112 16010G18KT P6SM SCT025 OVC120
      TEMPO 3014/3016 BKN025
     FM301600 19010G18KT P6SM BKN025
     FM302000 20008KT P6SM VCSH SCT035 BKN060
     FM010300 27006KT P6SM SCT060 BKN250=



000
FTUS44 KLZK 301148 AAA
TAFLIT
TAF AMD
KLIT 301148Z 3012/0112 17010G18KT P6SM VCSH SCT020 BKN060
      WS020/18045KT
      TEMPO 3012/3016 BKN020
     FM301600 19010G18KT P6SM BKN025
     FM302000 20008KT P6SM VCSH SCT035 BKN060
     FM010300 27006KT P6SM SCT060 BKN250=



000
FTUS44 KLZK 301148 AAA
TAFLIT
TAF AMD
KLIT 301148Z 3012/0112 17010G18KT P6SM VCSH SCT020 BKN060
      WS020/18045KT
      TEMPO 3012/3016 BKN020
     FM301600 19010G18KT P6SM BKN025
     FM302000 20008KT P6SM VCSH SCT035 BKN060
     FM010300 27006KT P6SM SCT060 BKN250=



000
FTUS44 KLZK 301142
TAFHRO
TAF
KHRO 301142Z 3012/0112 16009G16KT P6SM VCSH SCT007 OVC015
      TEMPO 3012/3015 BKN007
     FM301500 20009G16KT P6SM OVC012
     FM301800 23008KT P6SM BKN025
     FM302100 25007KT P6SM SCT035 BKN250
     FM010000 27005KT P6SM BKN250=



000
FTUS44 KLZK 301142
TAFHOT
TAF
KHOT 301142Z 3012/0112 17008KT P6SM OVC015
     FM301500 20007KT P6SM BKN025
     FM301900 22007KT P6SM SCT035 BKN060
     FM010000 VRB03KT P6SM SCT060 BKN250=



000
FTUS44 KLZK 301142
TAFPBF
TAF
KPBF 301142Z 3012/0112 20012G20KT P6SM VCSH SCT025 BKN060
      TEMPO 3012/3016 -SHRA BKN025
     FM301600 20012G20KT P6SM VCSH SCT035 BKN060
     FM010200 24006KT P6SM BKN060
     FM010600 27005KT P6SM SCT060 BKN250=



000
FTUS44 KLZK 301142
TAFLIT
TAF
KLIT 301142Z 3012/0112 17010G18KT P6SM VCSH SCT020 BKN060
      TEMPO 3012/3016 BKN020
     FM301600 19010G18KT P6SM BKN025
     FM302000 20008KT P6SM VCSH SCT035 BKN060
     FM010300 27006KT P6SM SCT060 BKN250=



000
FTUS44 KLZK 301045 AAA
TAFPBF
TAF AMD
KPBF 301045Z 3011/0106 20010G18KT 6SM -SHRA SCT020 OVC060
      TEMPO 3011/3015 4SM TSRA BR BKN020CB
     FM301500 20010G18KT 6SM -SHRA BKN025 OVC050
     FM301800 20010G18KT P6SM VCSH OVC060
     FM010000 24005KT P6SM BKN060 BKN250=



000
FTUS44 KLZK 300944 AAB
TAFLIT
TAF AMD
KLIT 300944Z 3010/0106 20012G20KT 5SM -SHRA BR SCT007 OVC030
      TEMPO 3010/3014 3SM TSRA BR BKN007CB
     FM301400 20010G18KT P6SM VCSH OVC025
     FM302000 20009G16KT P6SM VCSH SCT035 BKN250
     FM010000 24005KT P6SM BKN250=



000
FTUS44 KLZK 300940 AAA
TAFHOT
TAF AMD
KHOT 300940Z 3010/0106 14009G16KT P6SM SCT012 OVC050
      TEMPO 3010/3014 3SM -SHRA BR BKN012
     FM301400 20007KT P6SM VCSH OVC015
     FM301800 22007KT P6SM VCSH BKN025
     FM302100 24007KT P6SM VCSH SCT035 BKN250
     FM010000 VRB03KT P6SM SCT250=



000
FTUS44 KLZK 300935 AAA
TAFHRO
TAF AMD
KHRO 300935Z 3010/0106 14010G18KT P6SM VCSH SCT007 OVC015
      TEMPO 3010/3014 BKN007
     FM301500 20009G16KT P6SM OVC012
     FM301800 23008KT P6SM BKN025
     FM302100 25008KT P6SM SCT035 SCT250
     FM010000 27005KT P6SM SCT250=



000
FTUS44 KLZK 300737 AAA
TAFLIT
TAF AMD
KLIT 300737Z 3008/0106 13009G16KT 6SM -SHRA BR SCT007 OVC030
      TEMPO 3008/3011 3SM TSRA BR BKN007CB
     FM301100 17010G18KT 5SM -SHRA BR SCT015 OVC040
     FM301500 19009G16KT P6SM VCSH BKN025 OVC050
     FM010000 24005KT P6SM SCT060 BKN250=



000
FTUS44 KLZK 300529
TAFLIT
TAF
KLIT 300529Z 3006/0106 08008KT 6SM -TSRA BR SCT008 OVC040CB
      TEMPO 3006/3009 3SM TSRA BR SCT008 OVC025CB
     FM300900 10008KT 5SM -TSRA BR BKN008 OVC025CB
     FM301100 13005KT 4SM -TSRA BR BKN005 OVC020CB
     FM301500 18010KT 6SM -RA BR BKN008 OVC015=



000
FTUS44 KLZK 300529
TAFHOT
TAF
KHOT 300529Z 3006/0106 12009G18KT P6SM -RA BKN015 OVC040
      TEMPO 3006/3009 3SM -TSRA BR SCT005 OVC015CB
     FM300900 12009KT 4SM -TSRA BR OVC015CB
     FM301100 15005KT 2SM -TSRA BR OVC008CB
     FM301400 19010KT 6SM -RA BR BKN008 OVC015=



000
FTUS44 KLZK 300529
TAFHRO
TAF
KHRO 300529Z 3006/0106 12009KT P6SM -RA BKN015 OVC050
      TEMPO 3006/3010 3SM -TSRA BR BKN008CB OVC025
     FM301000 11008KT 5SM -RA BR BKN008 OVC025
      TEMPO 3010/3014 2SM -TSRA BR BKN005CB OVC025
     FM301600 19010KT 6SM BR VCSH BKN008 OVC015=



000
FTUS44 KLZK 300529
TAFPBF
TAF
KPBF 300529Z 3006/0106 12006KT P6SM -RA SCT008 OVC040
      TEMPO 3006/3009 3SM TSRA BR SCT008 OVC025CB
     FM300900 12008KT 4SM -TSRA BR BKN006 OVC025CB
     FM301100 15005KT 2SM -TSRA BR BKN005 OVC020CB
     FM301500 18010KT 6SM -RA BR BKN008 OVC015=



000
FTUS44 KLZK 300436 AAB
TAFLIT
TAF AMD
KLIT 300436Z 3005/3024 12008KT 5SM -TSRA BR SCT008 OVC035CB
      TEMPO 3005/3008 2SM TSRA BR SCT005 OVC020CB
     FM300800 12008KT 5SM -TSRA BR BKN006 OVC025CB
     FM301000 14005KT 2SM -TSRA BR BKN005 OVC020CB
     FM301500 19010KT 6SM -RA BR BKN008 OVC015=



000
FTUS44 KLZK 300411 AAB
TAFHRO
TAF AMD
KHRO 300411Z 3004/3024 13009KT P6SM -TSRA SCT010CB OVC050
      TEMPO 3004/3008 4SM -TSRA BR SCT010 OVC025CB
     FM300800 12009KT 4SM -TSRA BR BKN005CB OVC025
     FM301200 15005KT 2SM -TSRA BR BKN005CB OVC025
     FM301500 19010KT 6SM BR VCSH BKN008 OVC015=



000
FTUS44 KLZK 300411 AAB
TAFHRO
TAF AMD
KHRO 300411Z 3004/3024 13009KT P6SM -TSRA SCT010CB OVC050
      TEMPO 3004/3008 4SM -TSRA BR SCT010 OVC025CB
     FM300800 12009KT 4SM -TSRA BR BKN005CB OVC025
     FM301200 15005KT 2SM -TSRA BR BKN005CB OVC025
     FM301500 19010KT 6SM BR VCSH BKN008 OVC015=



000
FTUS44 KLZK 300308 AAB
TAFHOT
TAF AMD
KHOT 300308Z 3003/3024 10009G18KT 6SM -TSRA BR SCT008CB OVC050
      TEMPO 3003/3006 VRB15G30KT 2SM TSRA BR SCT005 OVC015CB
     FM300600 11009KT 5SM -TSRA BR SCT008CB OVC040
      TEMPO 3006/3009 2SM -TSRA BR SCT005 OVC015CB
     FM300900 12009KT 4SM -TSRA BR OVC015CB
     FM301100 15005KT 2SM -TSRA BR OVC008CB
     FM301400 19010KT 6SM -RA BR BKN008 OVC015=



000
FTUS44 KLZK 300224 AAA
TAFHOT
TAF AMD
KHOT 300224Z 3002/3024 13009G18KT P6SM -TSRA SCT008CB OVC050
      TEMPO 3002/3004 VRB15G30KT 2SM TSRA BR SCT005 OVC015CB
     FM300400 11009KT 5SM -TSRA BR SCT008CB OVC040
      TEMPO 3004/3008 2SM TSRA BR SCT005 OVC015CB
     FM300800 12009KT 4SM -TSRA BR OVC015CB
     FM301200 15005KT 2SM -TSRA BR OVC008CB
     FM301500 19010KT 6SM -RA BR BKN008 OVC015=



000
FTUS44 KLZK 300129 AAA
TAFHRO
TAF AMD
KHRO 300129Z 3001/3024 11009KT 4SM -TSRA BR BKN002CB OVC025
      TEMPO 3001/3004 1SM -TSRA BR BKN002 OVC008CB
     FM300400 12009KT 4SM -TSRA BR BKN005CB OVC025
     FM300800 15005KT 2SM -TSRA BR BKN005CB OVC025
     FM301500 19010KT 6SM BR VCSH BKN008 OVC015=



000
FTUS44 KLZK 300049 AAA
TAFPBF
TAF AMD
KPBF 300049Z 3001/3024 17008KT P6SM -RA SCT009 OVC050
      TEMPO 3002/3005 2SM TSRA BR BKN008 OVC020CB
     FM300500 16008KT 5SM -TSRA BR BKN008 OVC025CB
     FM300700 16008KT 4SM -TSRA BR BKN006 OVC025CB
     FM300900 17005KT 2SM -TSRA BR BKN005 OVC020CB
     FM301500 19010KT 6SM -RA BR BKN008 OVC015=



000
FTUS44 KLZK 300049 AAA
TAFPBF
TAF AMD
KPBF 300049Z 3001/3024 17008KT P6SM -RA SCT009 OVC050
      TEMPO 3002/3005 2SM TSRA BR BKN008 OVC020CB
     FM300500 16008KT 5SM -TSRA BR BKN008 OVC025CB
     FM300700 16008KT 4SM -TSRA BR BKN006 OVC025CB
     FM300900 17005KT 2SM -TSRA BR BKN005 OVC020CB
     FM301500 19010KT 6SM -RA BR BKN008 OVC015=



000
FTUS44 KLZK 300045 AAA
TAFLIT
TAF AMD
KLIT 300045Z 3001/3024 12008KT P6SM -TSRA BKN020CB OVC050
      TEMPO 3001/3004 VRB10G25KT 2SM TSRA BR SCT005 OVC020CB
     FM300400 12008KT 5SM -TSRA BR BKN008 OVC025CB
     FM300700 12008KT 4SM -TSRA BR BKN006 OVC025CB
     FM300900 15005KT 2SM -TSRA BR BKN005 OVC020CB
     FM301500 19010KT 6SM -RA BR BKN008 OVC015=



000
FTUS44 KLZK 292338
TAFLIT
TAF
KLIT 292338Z 3000/3024 12008KT P6SM -TSRA BKN009CB OVC050
      TEMPO 3000/3004 2SM TSRA BR BKN005 OVC020CB
     FM300400 12008KT 5SM -TSRA BR BKN008 OVC025CB
     FM300700 12008KT 4SM -TSRA BR BKN006 OVC025CB
     FM300900 15005KT 2SM -TSRA BR BKN005 OVC020CB
     FM301500 19010KT 6SM -RA BR BKN008 OVC015=



000
FTUS44 KLZK 292338
TAFHOT
TAF
KHOT 292338Z 3000/3024 13009G18KT P6SM -TSRA SCT008CB OVC050
      TEMPO 3000/3004 VRB15G30KT 2SM TSRA BR BKN005 OVC008CB
     FM300400 11009KT 5SM -TSRA BR BKN008CB OVC025
      TEMPO 3004/3008 2SM TSRA BR BKN005 OVC008CB
     FM300800 12009KT 4SM -TSRA BR OVC007CB
     FM301200 15005KT 2SM -TSRA BR OVC005CB
     FM301500 19010KT 6SM -RA BR BKN008 OVC015=



000
FTUS44 KLZK 292338
TAFPBF
TAF
KPBF 292338Z 3000/3024 12008KT P6SM -TSRA BKN009CB OVC050
      TEMPO 3000/3004 2SM TSRA BR BKN005 OVC020CB
     FM300400 12008KT 5SM -TSRA BR BKN008 OVC025CB
     FM300700 12008KT 4SM -TSRA BR BKN006 OVC025CB
     FM300900 15005KT 2SM -TSRA BR BKN005 OVC020CB
     FM301500 19010KT 6SM -RA BR BKN008 OVC015=



000
FTUS44 KLZK 292338
TAFHRO
TAF
KHRO 292338Z 3000/3024 11009KT 5SM -TSRA BR BKN002CB OVC025
      TEMPO 3000/3004 2SM -TSRA BR BKN002 OVC008CB
     FM300400 12009KT 4SM -TSRA BR BKN005CB OVC025
     FM300800 15005KT 2SM -TSRA BR BKN005CB OVC025
     FM301500 19010KT 6SM BR VCSH BKN008 OVC015=



000
FTUS44 KLZK 292212 AAB
TAFHRO
TAF AMD
KHRO 292212Z 2922/3018 10010KT 3SM BR VCSH BKN007 OVC015
      TEMPO 2922/2924 1/2SM FG OVC001
     FM300000 11009KT 5SM -TSRA BR BKN005CB OVC025
     FM300300 12009KT 4SM -TSRA BR BKN005CB OVC025
     FM301000 15005KT 3SM -TSRA BR BKN005CB OVC025
     FM301500 19010KT P6SM VCSH SCT008 OVC015=



000
FTUS44 KLZK 292158 AAA
TAFLIT
TAF AMD
KLIT 292158Z 2922/3018 11010KT P6SM -SHRA OVC025
     FM292300 12010KT P6SM -TSRA SCT020CB OVC050
      TEMPO 2923/3003 2SM TSRA BR BKN008 OVC020CB
     FM300300 12008KT 5SM -TSRA BR BKN008 OVC025CB
     FM300600 12008KT 4SM -TSRA BR BKN007 OVC025CB
     FM300900 15005KT 1SM TSRA BR OVC005CB
     FM301500 19010KT P6SM OVC015=



000
FTUS44 KLZK 292156 AAA
TAFPBF
TAF AMD
KPBF 292156Z 2922/3018 12008KT P6SM -TSRA SCT020CB OVC050
      TEMPO 2922/3002 2SM TSRA BR BKN008 OVC020CB
     FM300200 12008KT 5SM -TSRA BR BKN008 OVC025CB
     FM300800 15005KT 2SM TSRA BR BKN005CB OVC020
     FM301500 19010KT P6SM VCSH SCT008 OVC015=



000
FTUS44 KLZK 292149 AAA
TAFHOT
TAF AMD
KHOT 292149Z 2922/3018 13009G18KT P6SM -TSRA BKN008CB OVC025
      TEMPO 2922/3001 2SM TSRA BR OVC008CB
     FM300100 11009KT P6SM -TSRA BKN008CB OVC025
     FM300300 12009KT 4SM TSRA BR OVC007CB
     FM301200 15005KT 1SM TSRA BR OVC005CB
     FM301500 19010KT P6SM VCSH OVC015=



000
FTUS44 KLZK 292057 AAA
TAFHRO
TAF AMD
KHRO 292057Z 2921/3018 10010KT P6SM VCSH SCT007 OVC015
      TEMPO 2921/2923 3SM BR OVC002
     FM292300 11009KT P6SM -SHRA SCT005 OVC025
     FM300300 12009KT 5SM -TSRA BR BKN007CB OVC025
     FM301000 15005KT 3SM -TSRA BR BKN005CB OVC025
     FM301500 19010KT P6SM OVC015=



000
FTUS44 KLZK 291739
TAFLIT
TAF
KLIT 291739Z 2918/3018 11011KT P6SM SCT025 OVC050
      TEMPO 2918/2922 2SM TSRA BR SCT015 OVC025CB
     FM292200 11009KT P6SM -SHRA OVC025
     FM300300 12013G23KT 4SM TSRA BR OVC007CB
     FM301200 15005KT 1SM TSRA BR OVC005CB
     FM301500 19010KT P6SM OVC015=



000
FTUS44 KLZK 291739
TAFHOT
TAF
KHOT 291739Z 2918/3018 15006KT 5SM -SHRA BR SCT070 OVC110
      TEMPO 2918/2922 2SM TSRA BR SCT015 OVC025CB
     FM292200 11009KT P6SM -SHRA OVC025
     FM300300 12013G23KT 4SM TSRA BR OVC007CB
     FM301200 15005KT 1SM TSRA BR OVC005CB
     FM301500 19010KT P6SM OVC015=



000
FTUS44 KLZK 291739
TAFHRO
TAF
KHRO 291739Z 2918/3018 13013G22KT P6SM SCT007 OVC015
      TEMPO 2918/2920 OVC004
     FM292200 11009KT P6SM -SHRA OVC025
     FM300300 12013G23KT 4SM TSRA BR OVC007CB
     FM301200 15005KT 1SM TSRA BR OVC005CB
     FM301500 19010KT P6SM OVC015=



000
FTUS44 KLZK 291739
TAFPBF
TAF
KPBF 291739Z 2918/3018 13008KT 5SM TSRA BR OVC025CB
      TEMPO 2918/2922 2SM TSRA BR OVC008CB
     FM292200 11009KT P6SM -SHRA OVC025
     FM300300 12013G23KT 4SM TSRA BR OVC007CB
     FM301200 15005KT 1SM TSRA BR OVC005CB
     FM301500 19010KT P6SM OVC015=



000
FTUS44 KLZK 291553 AAA
TAFLIT
TAF AMD
KLIT 291553Z 2916/3012 03008KT 6SM -SHRA SCT040 OVC110
      TEMPO 2916/2918 2SM TSRA BR OVC025CB
     FM291800 10008KT P6SM VCTS OVC020CB
     FM292200 12008KT P6SM VCTS SCT025CB BKN060
     FM300300 14010G18KT 4SM TSRA BR OVC015CB=



000
FTUS44 KLZK 291530 AAA
TAFHRO
TAF AMD
KHRO 291530Z 2916/3012 09009KT 5SM SHRA SCT004 OVC060
      TEMPO 2916/2917 3SM TSRA BR OVC009CB
     FM291700 10009KT 4SM -TSRA BR SCT007 OVC020CB
     FM292100 11009KT P6SM VCTS OVC012CB
     FM300400 12012G20KT 4SM -TSRA BR OVC007CB=



000
FTUS44 KLZK 291530 AAA
TAFHRO
TAF AMD
KHRO 291530Z 2916/3012 09009KT 5SM SHRA SCT004 OVC060
      TEMPO 2916/2917 3SM TSRA BR OVC009CB
     FM291700 10009KT 4SM -TSRA BR SCT007 OVC020CB
     FM292100 11009KT P6SM VCTS OVC012CB
     FM300400 12012G20KT 4SM -TSRA BR OVC007CB=



000
FTUS44 KLZK 291403 AAB
TAFHOT
TAF AMD
KHOT 291403Z 2914/3012 09009KT P6SM -SHRA SCT015 OVC060
      TEMPO 2914/2916 3SM TSRA BR OVC025CB
     FM291600 11006KT P6SM VCTS OVC020CB
     FM292200 14007KT P6SM VCTS SCT025CB BKN060
     FM300300 15010G18KT 4SM TSRA BR OVC015CB=



000
FTUS44 KLZK 291403 AAB
TAFHOT
TAF AMD
KHOT 291403Z 2914/3012 09009KT P6SM -SHRA SCT015 OVC060
      TEMPO 2914/2916 3SM TSRA BR OVC025CB
     FM291600 11006KT P6SM VCTS OVC020CB
     FM292200 14007KT P6SM VCTS SCT025CB BKN060
     FM300300 15010G18KT 4SM TSRA BR OVC015CB=



000
FTUS44 KLZK 291333 AAB
TAFPBF
TAF AMD
KPBF 291333Z 2914/3012 11011KT 5SM SHRA BR SCT015 OVC030
      TEMPO 2914/2916 1SM TSRA BR OVC015CB
     FM291600 11008KT 4SM TSRA BR OVC025CB
     FM291800 13008KT P6SM VCTS OVC020CB
     FM292200 14008KT P6SM VCTS SCT025CB BKN060
     FM300300 15010G18KT 4SM -TSRA BR OVC015CB=



000
FTUS44 KLZK 291333 AAB
TAFPBF
TAF AMD
KPBF 291333Z 2914/3012 11011KT 5SM SHRA BR SCT015 OVC030
      TEMPO 2914/2916 1SM TSRA BR OVC015CB
     FM291600 11008KT 4SM TSRA BR OVC025CB
     FM291800 13008KT P6SM VCTS OVC020CB
     FM292200 14008KT P6SM VCTS SCT025CB BKN060
     FM300300 15010G18KT 4SM -TSRA BR OVC015CB=



000
FTUS44 KLZK 291239 AAA
TAFHOT
TAF AMD
KHOT 291239Z 2913/3012 25009G17KT 1SM TSRA BR OVC015CB
      TEMPO 2913/2916 3SM TSRA BR OVC025CB
     FM291600 11006KT P6SM VCTS OVC020CB
     FM292200 14007KT P6SM VCTS SCT025CB BKN060
     FM300300 15010G18KT 4SM TSRA BR OVC015CB=



000
FTUS44 KLZK 291239 AAA
TAFHOT
TAF AMD
KHOT 291239Z 2913/3012 25009G17KT 1SM TSRA BR OVC015CB
      TEMPO 2913/2916 3SM TSRA BR OVC025CB
     FM291600 11006KT P6SM VCTS OVC020CB
     FM292200 14007KT P6SM VCTS SCT025CB BKN060
     FM300300 15010G18KT 4SM TSRA BR OVC015CB=



000
FTUS44 KLZK 291149 AAA
TAFPBF
TAF AMD
KPBF 291149Z 2912/3012 09008KT P6SM SCT030 OVC060
      TEMPO 2912/2915 3SM TSRA BR BKN025CB
     FM291500 11008KT 4SM TSRA BR OVC025CB
     FM291800 13008KT P6SM VCTS OVC020CB
     FM292200 14008KT P6SM VCTS SCT025CB BKN060
     FM300300 15010G18KT 4SM -TSRA BR OVC015CB=



000
FTUS44 KLZK 291149 AAA
TAFPBF
TAF AMD
KPBF 291149Z 2912/3012 09008KT P6SM SCT030 OVC060
      TEMPO 2912/2915 3SM TSRA BR BKN025CB
     FM291500 11008KT 4SM TSRA BR OVC025CB
     FM291800 13008KT P6SM VCTS OVC020CB
     FM292200 14008KT P6SM VCTS SCT025CB BKN060
     FM300300 15010G18KT 4SM -TSRA BR OVC015CB=



000
FTUS44 KLZK 291145
TAFHRO
TAF
KHRO 291145Z 2912/3012 09007KT P6SM SCT030 BKN060
      TEMPO 2912/2916 3SM TSRA BR BKN020CB
     FM291600 10009KT 4SM -TSRA BR SCT007 OVC020CB
     FM292100 11009KT P6SM VCTS OVC012CB
     FM300400 12012G20KT 4SM -TSRA BR OVC007CB=



000
FTUS44 KLZK 291145
TAFHOT
TAF
KHOT 291145Z 2912/3012 09006KT 5SM SHRA SCT015 OVC030
      TEMPO 2912/2916 3SM TSRA BR BKN015CB
     FM291600 11006KT P6SM VCTS OVC020CB
     FM292200 14007KT P6SM VCTS SCT025CB BKN060
     FM300300 15010G18KT 4SM TSRA BR OVC015CB=



000
FTUS44 KLZK 291145
TAFLIT
TAF
KLIT 291145Z 2912/3012 08008KT P6SM SCT030 OVC060
      TEMPO 2912/2915 3SM TSRA BR BKN025CB
     FM291500 09008KT 4SM -TSRA BR OVC025CB
     FM291800 10008KT P6SM VCTS OVC020CB
     FM292200 12008KT P6SM VCTS SCT025CB BKN060
     FM300300 14010G18KT 4SM TSRA BR OVC015CB=



000
FTUS44 KLZK 291145
TAFPBF
TAF
KPBF 291145Z 2912/3012 06006KT P6SM SCT050 OVC100
     FM291300 10008KT P6SM VCTS SCT015CB OVC040
      TEMPO 2914/2918 4SM TSRA BR BKN012CB
     FM291800 13008KT 5SM -TSRA BR OVC015CB
     FM300200 15010G18KT 6SM -TSRA BR OVC025CB=



000
FTUS44 KLZK 290544
TAFPBF
TAF
KPBF 290544Z 2906/3006 06005KT P6SM SCT120 BKN250
     FM290900 06006KT P6SM SCT050 OVC100
     FM291300 10008KT P6SM VCTS SCT015CB OVC040
      TEMPO 2914/2918 4SM TSRA BR BKN012CB
     FM291800 13008KT 5SM -TSRA BR OVC015CB
     FM300200 15010G18KT 6SM -TSRA BR OVC025CB=



000
FTUS44 KLZK 290544
TAFLIT
TAF
KLIT 290544Z 2906/3006 06005KT P6SM SCT120 BKN250
     FM290900 06006KT P6SM SCT050 OVC100
     FM291300 08008KT P6SM VCTS SCT015CB OVC040
      TEMPO 2914/2918 4SM TSRA BR BKN012CB
     FM291800 12008KT 5SM -TSRA BR OVC015CB
     FM300200 14009G16KT 6SM -TSRA BR OVC025CB=



000
FTUS44 KLZK 290544
TAFHOT
TAF
KHOT 290544Z 2906/3006 08004KT P6SM SCT120 BKN250
     FM290900 08006KT P6SM SCT050 OVC100
     FM291100 09006KT P6SM SCT015 OVC040
      TEMPO 2911/2915 3SM TSRA BR BKN015CB
     FM291500 09006KT 4SM TSRA BR OVC015CB
     FM292200 15007KT P6SM VCTS SCT025CB BKN060
     FM300200 15009G16KT 5SM -TSRA BR OVC025CB=



000
FTUS44 KLZK 290544
TAFHRO
TAF
KHRO 290544Z 2906/3006 VRB03KT P6SM SCT120 BKN250
     FM291200 11007KT P6SM SCT050 BKN100
     FM291500 11009KT P6SM VCSH SCT015 OVC040
     FM291800 11010G20KT 5SM -SHRA BR OVC015
      TEMPO 2918/2922 4SM -TSRA BR OVC007CB
     FM292200 12010G18KT 4SM -TSRA BR OVC007CB=



000
FTUS44 KLZK 282335
TAFHRO
TAF
KHRO 282335Z 2900/2924 VRB03KT P6SM SKC
     FM291200 11007KT P6SM BKN035 OVC100
     FM291400 11009KT P6SM -RA OVC040
     FM291700 11010G20KT 5SM -RA BKN015
      TEMPO 2918/2922 4SM BR OVC007=



000
FTUS44 KLZK 282335
TAFHOT
TAF
KHOT 282335Z 2900/2924 11004KT P6SM SKC
     FM290900 10006KT P6SM OVC035
     FM291100 09005KT 5SM -TSRA BR BKN010CB OVC020
      TEMPO 2912/2916 2SM BR OVC004
     FM292200 15010G20KT 6SM BR VCTS SCT025CB BKN060=



000
FTUS44 KLZK 282335
TAFPBF
TAF
KPBF 282335Z 2900/2924 08004KT P6SM BKN250
     FM290900 12006KT P6SM SCT030 BKN060
     FM291300 11007G15KT P6SM VCTS BKN015CB OVC080
     FM292200 13009G20KT 6SM -TSRA BR BKN015CB OVC040=



000
FTUS44 KLZK 282335
TAFLIT
TAF
KLIT 282335Z 2900/2924 09003KT P6SM SCT250
     FM290200 09005KT P6SM BKN250
     FM290900 10006KT P6SM OVC040
     FM291300 11008KT P6SM VCTS OVC020CB
      TEMPO 2914/2918 4SM TSRA BR OVC007CB
     FM291800 13010G20KT 5SM -TSRA BR OVC015CB=



000
FTUS44 KLZK 281730
TAFHOT
TAF
KHOT 281730Z 2818/2918 14004KT P6SM SKC
     FM290200 09005KT P6SM BKN250
     FM290900 10006KT P6SM OVC040
     FM291400 11008KT P6SM OVC020 PROB30 2914/2918 4SM -TSRA BR
      OVC010CB=



000
FTUS44 KLZK 281730
TAFLIT
TAF
KLIT 281730Z 2818/2918 VRB05KT P6SM SKC
     FM282230 09003KT P6SM SCT250
     FM290200 09005KT P6SM BKN250
     FM290900 10006KT P6SM OVC040
     FM291400 11008KT P6SM OVC020 PROB30 2915/2918 4SM -TSRA BR
      OVC010CB=



000
FTUS44 KLZK 281730
TAFPBF
TAF
KPBF 281730Z 2818/2918 VRB06KT P6SM SKC
     FM290000 08004KT P6SM BKN250=



000
FTUS44 KLZK 281730
TAFHRO
TAF
KHRO 281730Z 2818/2918 34008KT P6SM SKC
     FM282000 VRB03KT P6SM SKC
     FM290200 11004KT P6SM BKN250
     FM291200 11007KT P6SM OVC100
     FM291500 11009KT P6SM -RA OVC040=



000
FTUS44 KLZK 281128
TAFLIT
TAF
KLIT 281128Z 2812/2912 VRB04KT P6SM SKC
     FM281800 14006KT P6SM SKC
     FM290000 09004KT P6SM BKN250=



000
FTUS44 KLZK 281128
TAFHRO
TAF
KHRO 281128Z 2812/2912 29005KT P6SM SKC
     FM282000 17005KT P6SM SKC
     FM290000 14004KT P6SM BKN250=



000
FTUS44 KLZK 281128
TAFPBF
TAF
KPBF 281128Z 2812/2912 VRB04KT P6SM SKC
     FM281800 12005KT P6SM SKC
     FM290000 08004KT P6SM BKN250=



000
FTUS44 KLZK 281128
TAFHOT
TAF
KHOT 281128Z 2812/2912 VRB03KT P6SM SCT250
     FM281500 14006KT P6SM SKC
     FM290000 09005KT P6SM BKN250=



000
FTUS44 KLZK 281128
TAFLIT
TAF
KLIT 281128Z 2812/2912 VRB04KT P6SM SKC
     FM281800 14006KT P6SM SKC
     FM290000 09004KT P6SM BKN250=



000
FTUS44 KLZK 281128
TAFPBF
TAF
KPBF 281128Z 2812/2912 VRB04KT P6SM SKC
     FM281800 12005KT P6SM SKC
     FM290000 08004KT P6SM BKN250=



000
FTUS44 KLZK 281128
TAFHRO
TAF
KHRO 281128Z 2812/2912 29005KT P6SM SKC
     FM282000 17005KT P6SM SKC
     FM290000 14004KT P6SM BKN250=



000
FTUS44 KLZK 281128
TAFHOT
TAF
KHOT 281128Z 2812/2912 VRB03KT P6SM SCT250
     FM281500 14006KT P6SM SKC
     FM290000 09005KT P6SM BKN250=



000
FTUS44 KLZK 280532
TAFLIT
TAF
KLIT 280532Z 2806/2906 VRB05KT P6SM SCT250
     FM290000 10004KT P6SM BKN250=



000
FTUS44 KLZK 280532
TAFPBF
TAF
KPBF 280532Z 2806/2906 VRB05KT P6SM SCT250
     FM290000 07004KT P6SM BKN250=



000
FTUS44 KLZK 280532
TAFHOT
TAF
KHOT 280532Z 2806/2906 00000KT P6SM SCT250
     FM281500 VRB05KT P6SM SCT250
     FM290000 09005KT P6SM BKN250=



000
FTUS44 KLZK 280532
TAFHRO
TAF
KHRO 280532Z 2806/2906 29005KT P6SM SCT250
     FM281500 VRB05KT P6SM SCT250
     FM290000 13003KT P6SM BKN250=



000
FTUS44 KLZK 272327
TAFPBF
TAF
KPBF 272327Z 2800/2824 20008KT P6SM SCT050 SCT250
     FM280600 28006KT P6SM FEW050 SCT250
     FM281500 03005KT P6SM SKC=



000
FTUS44 KLZK 272327
TAFLIT
TAF
KLIT 272327Z 2800/2824 25008KT P6SM SCT040 SCT250
     FM280800 30005KT P6SM FEW050 SCT250
     FM281500 03005KT P6SM SCT250=



000
FTUS44 KLZK 272327
TAFHRO
TAF
KHRO 272327Z 2800/2824 26006KT P6SM SCT060
     FM280600 31007KT P6SM SCT250
     FM281500 09005KT P6SM SCT250=



000
FTUS44 KLZK 272327
TAFHOT
TAF
KHOT 272327Z 2800/2824 25008KT P6SM SCT050
     FM280800 30008KT P6SM FEW050 SCT250
     FM281500 09005KT P6SM SCT250=



000
FTUS44 KLZK 271725
TAFHRO
TAF
KHRO 271725Z 2718/2818 19010G20KT P6SM VCSH SCT050
     FM272000 21010G20KT P6SM VCTS SCT050CB BKN100
     FM280000 27008G18KT P6SM SCT050 SCT250
     FM280600 28010KT P6SM FEW050 SCT250=



000
FTUS44 KLZK 271725
TAFHOT
TAF
KHOT 271725Z 2718/2818 22009G18KT P6SM SCT050
     FM272100 21010G20KT P6SM VCTS SCT050CB BKN100
     FM280100 27005KT P6SM SCT050 SCT250
     FM280800 30008KT P6SM FEW050 SCT250=



000
FTUS44 KLZK 271725
TAFPBF
TAF
KPBF 271725Z 2718/2818 23008G15KT P6SM FEW040 SCT250
     FM272100 21010G18KT P6SM VCTS SCT050CB BKN100
     FM280000 27008KT P6SM SCT050 SCT250
     FM280600 28006KT P6SM FEW050 SCT250=



000
FTUS44 KLZK 271725
TAFLIT
TAF
KLIT 271725Z 2718/2818 21008G15KT P6SM FEW040 SCT250
     FM272100 21010G20KT P6SM VCTS SCT050CB BKN100
     FM280000 27008KT P6SM SCT050 SCT250
     FM280600 28007KT P6SM FEW050 SCT250=



    US Dept of Commerce
    National Oceanic and Atmospheric Administration
    National Weather Service
    1325 East West Highway
    Silver Spring, MD 20910
    Page Author: NWS Internet Services Team
Disclaimer
Information Quality
Credits
Glossary
Privacy Policy
Freedom of Information Act (FOIA)
About Us
Career Opportunities